Terminal Aerodrome Forecast
Issued by NWS

Home | Current Version | Previous Version | Graphics & Text | Print | Product List | Glossary On
Versions: 1 2 3 4 5 6 7 8 9 10 11 12 13 14 15 16
042
FTUS43 KOAX 160209 AAA
TAFCDR
TAF AMD
KCDR 160209Z 1602/1624 36010KT P6SM VCTS SCT050CB BKN070
      TEMPO 1602/1604 VRB25G35KT 3SM TSRA BKN040CB
     FM160500 VRB05KT P6SM SCT100=

USA.gov is the U.S. government's official web portal to all federal, state and local government web resources and services.